createdAt,value
2022-12-15T00:00:18.090Z,26.11
2022-12-15T00:03:04.077Z,24.50
2022-12-15T00:05:50.114Z,25.44
2022-12-15T00:08:36.000Z,27.36
2022-12-15T00:11:22.671Z,27.03
2022-12-15T00:14:08.811Z,25.95
2022-12-15T00:16:54.032Z,25.84
2022-12-15T00:19:40.129Z,27.05
2022-12-15T00:22:26.118Z,27.24
2022-12-15T00:25:11.527Z,27.65
2022-12-15T00:27:56.705Z,29.15
2022-12-15T00:30:42.056Z,25.81
2022-12-15T00:33:31.401Z,25.98
2022-12-15T00:36:18.299Z,26.83
2022-12-15T00:38:46.009Z,26.02
2022-12-15T00:41:15.141Z,27.45
2022-12-15T00:43:41.925Z,25.13
2022-12-15T00:46:27.717Z,25.50
2022-12-15T00:48:55.575Z,27.31
2022-12-15T00:51:22.841Z,27.92
2022-12-15T00:54:11.869Z,26.22
2022-12-15T00:57:00.593Z,28.46
2022-12-15T00:59:45.949Z,27.78
2022-12-15T01:02:31.275Z,28.92
2022-12-15T01:05:16.643Z,26.85
2022-12-15T01:08:01.835Z,28.53
2022-12-15T01:10:47.221Z,27.15
2022-12-15T01:13:32.767Z,27.18
2022-12-15T01:16:18.698Z,26.25
2022-12-15T01:19:04.043Z,27.50
2022-12-15T01:21:32.120Z,25.42
2022-12-15T01:23:58.793Z,26.09
2022-12-15T01:26:25.793Z,25.39
2022-12-15T01:28:52.489Z,24.45
2022-12-15T01:31:19.651Z,26.91
2022-12-15T01:33:46.329Z,26.86
2022-12-15T01:36:13.115Z,26.66
2022-12-15T01:38:40.622Z,26.41
2022-12-15T01:41:10.997Z,27.84
2022-12-15T01:43:41.056Z,26.28
2022-12-15T01:46:22.231Z,27.02
2022-12-15T01:48:59.969Z,27.44
2022-12-15T01:51:34.289Z,27.10
2022-12-15T01:54:11.004Z,28.50
2022-12-15T01:56:42.850Z,25.86
2022-12-15T01:59:15.250Z,26.92
2022-12-15T02:01:42.661Z,25.50
2022-12-15T02:04:11.241Z,27.11
2022-12-15T02:06:37.966Z,27.70
2022-12-15T02:09:05.899Z,26.61
2022-12-15T02:12:02.771Z,28.48
2022-12-15T02:15:06.895Z,27.58
2022-12-15T02:18:04.334Z,26.86
2022-12-15T02:20:52.568Z,26.25
2022-12-15T02:23:34.645Z,26.84
2022-12-15T02:26:30.084Z,26.33
2022-12-15T02:29:13.293Z,25.44
2022-12-15T02:31:52.501Z,25.06
2022-12-15T02:34:45.245Z,25.81
2022-12-15T02:37:22.641Z,25.60
2022-12-15T02:39:49.450Z,25.13
2022-12-15T02:42:16.599Z,26.24
2022-12-15T02:44:57.729Z,26.96
2022-12-15T02:47:24.869Z,26.22
2022-12-15T02:50:22.695Z,28.18
2022-12-15T02:53:43.513Z,27.58
2022-12-15T02:56:20.721Z,29.72
2022-12-15T02:59:03.186Z,27.98
2022-12-15T03:01:49.934Z,29.46
2022-12-15T03:04:18.153Z,28.71
2022-12-15T03:06:45.033Z,28.96
2022-12-15T03:09:12.576Z,31.90
2022-12-15T03:11:40.443Z,29.82
2022-12-15T03:14:07.155Z,28.14
2022-12-15T03:16:34.606Z,26.23
2022-12-15T03:19:01.374Z,27.57
2022-12-15T03:21:28.221Z,27.56
2022-12-15T03:23:55.359Z,26.26
2022-12-15T03:26:22.110Z,28.64
2022-12-15T03:28:48.811Z,26.58
2022-12-15T03:31:15.653Z,27.24
2022-12-15T03:33:43.109Z,25.91
2022-12-15T03:36:10.287Z,26.18
2022-12-15T03:38:37.055Z,29.46
2022-12-15T03:41:03.797Z,27.88
2022-12-15T03:43:30.928Z,28.67
2022-12-15T03:45:58.526Z,28.37
2022-12-15T03:48:25.520Z,28.52
2022-12-15T03:50:52.190Z,29.33
2022-12-15T03:53:18.947Z,26.60
2022-12-15T03:55:45.664Z,28.01
2022-12-15T03:58:13.162Z,30.61
2022-12-15T04:00:40.293Z,26.88
2022-12-15T04:03:07.167Z,26.88
2022-12-15T04:05:35.336Z,29.01
2022-12-15T04:08:02.488Z,26.75
2022-12-15T04:10:34.653Z,28.87
2022-12-15T04:13:07.374Z,27.81
2022-12-15T04:15:35.748Z,29.71
2022-12-15T04:18:05.947Z,28.93
2022-12-15T04:20:33.223Z,29.39
2022-12-15T04:23:00.366Z,26.82
2022-12-15T04:25:46.193Z,27.91
2022-12-15T04:28:32.565Z,28.51
2022-12-15T04:31:36.761Z,27.82
2022-12-15T04:34:24.886Z,27.01
2022-12-15T04:37:12.735Z,28.43
2022-12-15T04:40:00.925Z,28.24
2022-12-15T04:42:47.505Z,25.64
2022-12-15T04:45:35.846Z,28.38
2022-12-15T04:48:20.809Z,27.26
2022-12-15T04:51:06.528Z,31.01
2022-12-15T04:53:51.742Z,27.60
2022-12-15T04:56:36.973Z,28.37
2022-12-15T04:59:22.589Z,27.60
2022-12-15T05:02:07.822Z,30.02
2022-12-15T05:04:53.631Z,29.67
2022-12-15T05:07:39.327Z,32.81
2022-12-15T05:10:26.005Z,26.52
2022-12-15T05:13:11.339Z,25.41
2022-12-15T05:15:57.089Z,28.32
2022-12-15T05:18:43.086Z,26.59
2022-12-15T05:21:28.261Z,29.03
2022-12-15T05:24:13.969Z,26.52
2022-12-15T05:26:59.165Z,26.69
2022-12-15T05:29:44.401Z,25.67
2022-12-15T05:32:13.641Z,28.21
2022-12-15T05:34:40.645Z,29.16
2022-12-15T05:37:07.702Z,25.77
2022-12-15T05:39:34.518Z,27.70
2022-12-15T05:42:01.454Z,25.95
2022-12-15T05:44:29.473Z,25.92
2022-12-15T05:46:56.303Z,26.59
2022-12-15T05:49:23.453Z,26.00
2022-12-15T05:51:50.528Z,26.41
2022-12-15T05:54:19.685Z,27.22
2022-12-15T05:56:50.446Z,26.86
2022-12-15T05:59:19.220Z,25.67
2022-12-15T06:01:46.432Z,27.08
2022-12-15T06:04:14.600Z,26.93
2022-12-15T06:06:41.549Z,31.27
2022-12-15T06:09:09.251Z,30.08
2022-12-15T06:11:37.420Z,33.49
2022-12-15T06:14:04.288Z,29.20
2022-12-15T06:16:31.154Z,29.24
2022-12-15T06:19:01.019Z,26.75
2022-12-15T06:21:31.500Z,27.06
2022-12-15T06:23:58.829Z,30.44
2022-12-15T06:26:28.699Z,28.81
2022-12-15T06:28:58.789Z,28.19
2022-12-15T06:31:26.695Z,29.18
2022-12-15T06:34:00.890Z,27.84
2022-12-15T06:36:28.843Z,28.03
2022-12-15T06:38:58.812Z,27.30
2022-12-15T06:41:25.528Z,27.63
2022-12-15T06:43:55.910Z,27.23
2022-12-15T06:46:24.282Z,30.80
2022-12-15T06:48:51.576Z,28.37
2022-12-15T06:51:18.874Z,26.91
2022-12-15T06:53:49.059Z,27.30
2022-12-15T06:56:30.718Z,26.88
2022-12-15T06:59:00.391Z,28.59
2022-12-15T07:01:28.277Z,27.22
2022-12-15T07:03:55.907Z,27.54
2022-12-15T07:06:23.184Z,27.61
2022-12-15T07:08:53.103Z,27.10
2022-12-15T07:11:21.256Z,27.20
2022-12-15T07:13:53.156Z,26.86
2022-12-15T07:16:21.854Z,27.54
2022-12-15T07:18:49.534Z,27.90
2022-12-15T07:21:16.957Z,28.23
2022-12-15T07:24:00.884Z,26.71
2022-12-15T07:26:29.303Z,25.85
2022-12-15T07:28:56.247Z,27.10
2022-12-15T07:31:23.703Z,27.71
2022-12-15T07:33:52.703Z,26.24
2022-12-15T07:36:19.819Z,27.08
2022-12-15T07:38:50.079Z,28.93
2022-12-15T07:41:18.664Z,28.59
2022-12-15T07:43:47.120Z,30.05
2022-12-15T07:46:14.654Z,33.53
2022-12-15T07:48:41.536Z,28.10
2022-12-15T07:51:17.116Z,27.93
2022-12-15T07:53:47.017Z,28.04
2022-12-15T07:56:14.756Z,30.11
2022-12-15T07:58:42.570Z,32.00
2022-12-15T08:01:12.649Z,28.29
2022-12-15T08:03:40.405Z,28.39
2022-12-15T08:06:13.718Z,30.28
2022-12-15T08:08:43.756Z,31.16
2022-12-15T08:11:14.775Z,30.75
2022-12-15T08:16:32.138Z,27.85
2022-12-15T08:19:00.076Z,29.67
2022-12-15T08:21:27.755Z,29.19
2022-12-15T08:23:55.065Z,27.34
2022-12-15T08:26:26.794Z,27.08
2022-12-15T08:29:11.894Z,26.60
2022-12-15T08:31:45.164Z,28.29
2022-12-15T08:34:12.860Z,28.79
2022-12-15T08:36:39.616Z,27.78
2022-12-15T08:39:06.339Z,27.92
2022-12-15T08:41:33.658Z,30.21
2022-12-15T08:44:01.743Z,27.16
2022-12-15T08:46:33.999Z,26.56
2022-12-15T08:49:02.683Z,29.71
2022-12-15T08:51:31.508Z,30.36
2022-12-15T08:54:00.372Z,28.45
2022-12-15T08:56:28.253Z,32.40
2022-12-15T08:59:02.635Z,28.93
2022-12-15T09:01:32.462Z,27.75
2022-12-15T09:04:01.671Z,28.14
2022-12-15T09:06:34.622Z,26.90
2022-12-15T09:09:05.888Z,27.09
2022-12-15T09:11:33.092Z,28.58
2022-12-15T09:14:00.556Z,27.20
2022-12-15T09:16:28.371Z,26.26
2022-12-15T09:18:57.885Z,27.47
2022-12-15T09:21:29.433Z,29.03
2022-12-15T09:24:01.993Z,30.25
2022-12-15T09:26:34.620Z,29.24
2022-12-15T09:29:02.693Z,30.18
2022-12-15T09:31:33.323Z,27.81
2022-12-15T09:34:02.137Z,28.55
2022-12-15T09:36:31.983Z,30.01
2022-12-15T09:39:02.111Z,31.26
2022-12-15T09:41:39.978Z,30.45
2022-12-15T09:44:13.801Z,29.11
2022-12-15T09:47:05.027Z,32.08
2022-12-15T09:49:57.584Z,29.58
2022-12-15T09:52:27.398Z,27.94
2022-12-15T09:54:54.379Z,26.77
2022-12-15T09:57:26.017Z,28.70
2022-12-15T10:00:11.657Z,27.23
2022-12-15T10:02:45.073Z,25.70
2022-12-15T10:06:06.796Z,28.01
2022-12-15T10:08:31.298Z,25.61
2022-12-15T10:11:01.797Z,29.37
2022-12-15T10:13:44.128Z,27.49
2022-12-15T10:16:55.235Z,27.92
2022-12-15T10:20:27.031Z,28.22
2022-12-15T10:22:56.802Z,31.09
2022-12-15T10:25:30.073Z,28.86
2022-12-15T10:28:17.878Z,27.56
2022-12-15T10:31:14.462Z,28.76
2022-12-15T10:33:48.481Z,27.50
2022-12-15T10:36:18.275Z,30.29
2022-12-15T10:38:50.504Z,26.96
2022-12-15T10:41:21.554Z,30.76
2022-12-15T10:43:50.793Z,28.29
2022-12-15T10:46:22.139Z,28.81
2022-12-15T10:49:00.538Z,30.50
2022-12-15T10:51:37.128Z,28.47
2022-12-15T10:54:09.843Z,26.92
2022-12-15T10:56:57.918Z,31.24
2022-12-15T10:59:36.448Z,28.83
2022-12-15T11:02:33.202Z,28.91
2022-12-15T11:05:15.632Z,30.97
2022-12-15T11:07:48.237Z,29.52
2022-12-15T11:10:19.184Z,30.64
2022-12-15T11:13:15.723Z,28.28
2022-12-15T11:15:56.634Z,26.50
2022-12-15T11:18:48.722Z,27.36
2022-12-15T11:21:30.746Z,27.67
2022-12-15T11:24:15.890Z,28.53
2022-12-15T11:26:48.813Z,31.54
2022-12-15T11:29:21.390Z,30.43
2022-12-15T11:31:50.242Z,31.55
2022-12-15T11:34:21.150Z,32.20
2022-12-15T11:37:24.144Z,29.94
2022-12-15T11:40:02.443Z,29.16
2022-12-15T11:43:12.739Z,29.82
2022-12-15T11:46:32.743Z,27.08
2022-12-15T11:49:08.293Z,27.17
2022-12-15T11:51:41.389Z,33.11
2022-12-15T11:54:15.014Z,31.54
2022-12-15T11:56:56.618Z,28.52
2022-12-15T11:59:29.987Z,27.53
2022-12-15T12:02:34.027Z,28.14
2022-12-15T12:05:41.790Z,26.61
2022-12-15T12:08:30.540Z,24.87
2022-12-15T12:11:18.904Z,27.19
2022-12-15T12:14:11.635Z,30.98
2022-12-15T12:16:48.772Z,29.53
2022-12-15T12:19:34.681Z,32.09
2022-12-15T12:22:12.510Z,30.57
2022-12-15T12:24:50.789Z,30.76
2022-12-15T12:27:30.227Z,25.77
2022-12-15T12:30:11.894Z,31.30
2022-12-15T12:32:51.306Z,29.98
2022-12-15T12:35:42.878Z,29.61
2022-12-15T12:38:12.485Z,29.93
2022-12-15T12:41:04.546Z,29.09
2022-12-15T12:43:58.182Z,30.83
2022-12-15T12:46:42.698Z,32.04
2022-12-15T12:49:12.266Z,29.69
2022-12-15T12:51:42.110Z,30.76
2022-12-15T12:54:34.706Z,29.49
2022-12-15T12:57:22.460Z,26.47
2022-12-15T13:00:01.739Z,29.56
2022-12-15T13:02:29.390Z,28.61
2022-12-15T13:05:00.716Z,32.89
2022-12-15T13:07:40.406Z,29.64
2022-12-15T13:10:07.800Z,30.59
2022-12-15T13:12:54.008Z,26.05
2022-12-15T13:15:30.597Z,29.62
2022-12-15T13:18:18.755Z,27.05
2022-12-15T13:20:50.554Z,28.22
2022-12-15T13:23:20.303Z,32.61
2022-12-15T13:26:07.548Z,32.34
2022-12-15T13:28:35.336Z,26.59
2022-12-15T13:31:24.477Z,27.24
2022-12-15T13:33:51.359Z,27.39
2022-12-15T13:36:36.896Z,30.82
2022-12-15T13:39:12.910Z,27.81
2022-12-15T13:42:23.753Z,28.24
2022-12-15T13:44:41.864Z,30.59
2022-12-15T13:47:13.230Z,30.16
2022-12-15T13:50:01.756Z,28.98
2022-12-15T13:53:17.827Z,30.17
2022-12-15T13:55:51.146Z,30.22
2022-12-15T13:58:20.515Z,32.69
2022-12-15T14:00:51.679Z,30.38
2022-12-15T14:03:19.392Z,30.03
2022-12-15T14:05:55.193Z,30.55
2022-12-15T14:08:23.933Z,31.91
2022-12-15T14:10:59.085Z,33.73
2022-12-15T14:13:35.103Z,32.96
2022-12-15T14:16:14.655Z,34.06
2022-12-15T14:18:43.271Z,31.51
2022-12-15T14:21:24.828Z,29.59
2022-12-15T14:24:19.738Z,27.80
2022-12-15T14:26:41.219Z,27.00
2022-12-15T14:29:10.654Z,29.96
2022-12-15T14:31:37.827Z,29.09
2022-12-15T14:34:38.898Z,29.66
2022-12-15T14:37:12.316Z,29.85
2022-12-15T14:39:46.868Z,28.41
2022-12-15T14:42:25.632Z,30.55
2022-12-15T14:44:57.376Z,30.02
2022-12-15T14:47:32.422Z,28.16
2022-12-15T14:50:02.138Z,29.01
2022-12-15T14:52:40.017Z,29.51
2022-12-15T14:55:27.764Z,28.53
2022-12-15T14:57:54.556Z,28.68
2022-12-15T15:00:32.898Z,29.80
2022-12-15T15:03:39.434Z,29.39
2022-12-15T15:06:12.718Z,30.28
2022-12-15T15:08:52.615Z,29.59
2022-12-15T15:11:36.246Z,29.12
2022-12-15T15:14:08.988Z,28.78
2022-12-15T15:16:36.791Z,30.06
2022-12-15T15:19:05.472Z,31.40
2022-12-15T15:21:37.379Z,28.27
2022-12-15T15:24:24.990Z,27.06
2022-12-15T15:26:52.808Z,26.93
2022-12-15T15:29:41.250Z,31.18
2022-12-15T15:32:18.091Z,29.95
2022-12-15T15:34:48.633Z,28.58
2022-12-15T15:37:21.776Z,29.32
2022-12-15T15:39:51.167Z,30.43
2022-12-15T15:42:19.103Z,31.49
2022-12-15T15:44:47.257Z,28.06
2022-12-15T15:47:27.010Z,28.88
2022-12-15T15:49:58.339Z,30.10
2022-12-15T15:52:26.243Z,34.69
2022-12-15T15:54:53.372Z,30.46
2022-12-15T15:57:20.453Z,31.08
2022-12-15T15:59:47.953Z,33.68
2022-12-15T16:02:15.598Z,32.76
2022-12-15T16:04:44.622Z,33.33
2022-12-15T16:07:25.571Z,33.58
2022-12-15T16:09:53.460Z,35.09
2022-12-15T16:12:44.984Z,29.63
2022-12-15T16:15:18.505Z,30.39
2022-12-15T16:20:28.367Z,30.53
2022-12-15T16:22:59.606Z,30.50
2022-12-15T16:25:48.491Z,30.08
2022-12-15T16:28:23.502Z,31.41
2022-12-15T16:30:51.700Z,29.23
2022-12-15T16:33:19.287Z,29.69
2022-12-15T16:35:50.575Z,29.17
2022-12-15T16:38:24.528Z,30.17
2022-12-15T16:40:55.435Z,34.32
2022-12-15T16:43:28.956Z,28.20
2022-12-15T16:46:00.046Z,33.58
2022-12-15T16:48:27.292Z,29.35
2022-12-15T16:50:58.610Z,26.08
2022-12-15T16:53:29.715Z,28.21
2022-12-15T16:55:58.862Z,26.89
2022-12-15T16:58:27.284Z,27.82
2022-12-15T17:00:54.846Z,30.75
2022-12-15T17:03:25.888Z,29.47
2022-12-15T17:05:55.854Z,28.02
2022-12-15T17:08:46.689Z,28.86
2022-12-15T17:11:25.718Z,30.08
2022-12-15T17:13:55.893Z,31.30
2022-12-15T17:16:25.285Z,28.92
2022-12-15T17:18:52.907Z,30.70
2022-12-15T17:21:32.467Z,30.00
2022-12-15T17:24:06.711Z,27.96
2022-12-15T17:26:37.601Z,28.36
2022-12-15T17:29:23.424Z,28.47
2022-12-15T17:31:50.406Z,27.27
2022-12-15T17:34:34.744Z,29.86
2022-12-15T17:37:04.679Z,28.39
2022-12-15T17:39:34.112Z,31.12
2022-12-15T17:42:01.986Z,28.13
2022-12-15T17:44:36.293Z,32.10
2022-12-15T17:47:07.031Z,32.62
2022-12-15T17:49:37.316Z,30.13
2022-12-15T17:52:26.329Z,28.61
2022-12-15T17:54:53.666Z,29.16
2022-12-15T17:57:21.727Z,30.43
2022-12-15T17:59:49.067Z,30.30
2022-12-15T18:02:16.037Z,26.80
2022-12-15T18:04:43.533Z,29.43
2022-12-15T18:07:24.143Z,30.34
2022-12-15T18:09:53.150Z,30.44
2022-12-15T18:12:23.387Z,31.46
2022-12-15T18:14:50.721Z,33.23
2022-12-15T18:17:18.217Z,32.32
2022-12-15T18:19:46.103Z,32.87
2022-12-15T18:22:23.422Z,35.30
2022-12-15T18:24:53.431Z,36.77
2022-12-15T18:27:22.332Z,34.58
2022-12-15T18:29:49.921Z,32.81
2022-12-15T18:32:17.887Z,32.76
2022-12-15T18:34:44.888Z,32.95
2022-12-15T18:37:20.089Z,31.64
2022-12-15T18:39:47.409Z,34.76
2022-12-15T18:42:17.006Z,33.55
2022-12-15T18:44:48.176Z,34.82
2022-12-15T18:47:23.767Z,34.51
2022-12-15T18:49:50.960Z,37.69
2022-12-15T18:52:23.861Z,35.86
2022-12-15T18:54:54.312Z,35.01
2022-12-15T18:57:39.420Z,36.52
2022-12-15T19:00:15.200Z,36.03
2022-12-15T19:02:42.756Z,36.19
2022-12-15T19:05:28.009Z,34.45
2022-12-15T19:07:56.541Z,28.95
2022-12-15T19:10:27.020Z,32.20
2022-12-15T19:12:58.375Z,31.75
2022-12-15T19:15:26.009Z,35.52
2022-12-15T19:18:11.549Z,30.87
2022-12-15T19:20:57.805Z,31.14
2022-12-15T19:23:24.990Z,31.92
2022-12-15T19:25:53.775Z,35.43
2022-12-15T19:28:23.812Z,32.55
2022-12-15T19:30:52.803Z,33.11
2022-12-15T19:33:20.432Z,33.81
2022-12-15T19:35:51.424Z,33.01
2022-12-15T19:38:29.412Z,32.52
2022-12-15T19:40:57.903Z,33.88
2022-12-15T19:43:25.494Z,31.63
2022-12-15T19:45:54.658Z,36.56
2022-12-15T19:48:23.670Z,32.93
2022-12-15T19:50:54.947Z,32.64
2022-12-15T19:53:28.288Z,32.52
2022-12-15T19:55:59.042Z,32.00
2022-12-15T19:58:36.481Z,31.51
2022-12-15T20:01:10.157Z,32.34
2022-12-15T20:03:38.639Z,34.17
2022-12-15T20:06:14.411Z,35.06
2022-12-15T20:08:42.892Z,34.69
2022-12-15T20:11:28.692Z,33.45
2022-12-15T20:13:56.413Z,31.55
2022-12-15T20:16:24.895Z,32.49
2022-12-15T20:18:54.934Z,31.51
2022-12-15T20:21:32.317Z,35.91
2022-12-15T20:24:02.477Z,34.63
2022-12-15T20:26:30.546Z,36.40
2022-12-15T20:28:58.052Z,33.60
2022-12-15T20:31:26.871Z,30.94
2022-12-15T20:33:54.582Z,31.01
2022-12-15T20:36:27.734Z,33.51
2022-12-15T20:38:56.665Z,33.27
2022-12-15T20:41:28.658Z,33.61
2022-12-15T20:43:56.342Z,29.29
2022-12-15T20:46:33.152Z,29.22
2022-12-15T20:49:00.396Z,30.36
2022-12-15T20:51:32.850Z,33.06
2022-12-15T20:54:02.846Z,30.34
2022-12-15T20:56:29.966Z,31.67
2022-12-15T20:58:58.291Z,30.58
2022-12-15T21:01:28.892Z,31.54
2022-12-15T21:03:57.522Z,33.38
2022-12-15T21:06:25.947Z,31.96
2022-12-15T21:08:53.997Z,31.95
2022-12-15T21:11:26.977Z,30.75
2022-12-15T21:13:56.846Z,31.72
2022-12-15T21:16:27.736Z,30.77
2022-12-15T21:19:20.267Z,31.65
2022-12-15T21:21:46.220Z,29.65
2022-12-15T21:24:19.582Z,28.05
2022-12-15T21:26:47.054Z,28.95
2022-12-15T21:29:16.072Z,30.34
2022-12-15T21:31:44.026Z,27.01
2022-12-15T21:34:11.868Z,33.20
2022-12-15T21:36:41.790Z,32.50
2022-12-15T21:39:11.722Z,31.93
2022-12-15T21:41:43.024Z,30.41
2022-12-15T21:44:15.201Z,30.88
2022-12-15T21:46:42.127Z,29.33
2022-12-15T21:49:20.723Z,28.68
2022-12-15T21:51:52.770Z,29.42
2022-12-15T21:57:12.784Z,31.52
2022-12-15T21:59:40.624Z,29.38
2022-12-15T22:02:36.808Z,29.65
2022-12-15T22:05:04.092Z,31.40
2022-12-15T22:07:31.349Z,29.38
2022-12-15T22:09:58.479Z,28.66
2022-12-15T22:12:26.905Z,28.71
2022-12-15T22:14:54.658Z,31.30
2022-12-15T22:17:22.271Z,29.32
2022-12-15T22:19:49.951Z,29.04
2022-12-15T22:22:17.286Z,27.01
2022-12-15T22:24:44.339Z,26.43
2022-12-15T22:27:23.351Z,29.29
2022-12-15T22:29:51.780Z,33.91
2022-12-15T22:32:18.793Z,27.85
2022-12-15T22:34:45.637Z,27.21
2022-12-15T22:37:12.754Z,26.26
2022-12-15T22:39:40.939Z,28.67
2022-12-15T22:42:15.038Z,30.03
2022-12-15T22:44:42.365Z,26.64
2022-12-15T22:47:11.054Z,28.25
2022-12-15T22:49:41.172Z,28.05
2022-12-15T22:52:19.174Z,26.98
2022-12-15T22:54:46.656Z,28.11
2022-12-15T22:57:35.446Z,28.00
2022-12-15T23:00:08.188Z,26.36
2022-12-15T23:02:39.183Z,27.20
2022-12-15T23:05:07.671Z,27.54
2022-12-15T23:07:35.637Z,26.81
2022-12-15T23:10:21.743Z,29.08
2022-12-15T23:12:54.916Z,29.32
2022-12-15T23:15:41.882Z,30.38
2022-12-15T23:18:08.920Z,29.91
2022-12-15T23:20:37.215Z,29.37
2022-12-15T23:23:05.409Z,33.16
2022-12-15T23:25:32.213Z,29.02
2022-12-15T23:27:59.129Z,29.69
2022-12-15T23:30:26.305Z,28.07
2022-12-15T23:32:55.416Z,29.60
2022-12-15T23:35:22.833Z,29.80
2022-12-15T23:37:49.593Z,29.90
2022-12-15T23:40:22.278Z,31.18
2022-12-15T23:42:49.975Z,26.93
2022-12-15T23:45:18.279Z,31.76
2022-12-15T23:47:45.121Z,28.00
2022-12-15T23:50:12.025Z,29.08
2022-12-15T23:52:39.053Z,29.52
2022-12-15T23:55:10.397Z,31.43
2022-12-15T23:57:38.608Z,25.94
